Time;durP1;ratioP1;P1;durP2;ratioP2;P2;SDS_P1;SDS_P2;PMS_P1;PMS_P2;Temp;Humidity;BMP_temperature;BMP_pressure;BME280_temperature;BME280_humidity;BME280_pressure;Samples;Min_cycle;Max_cycle;Signal;HPM_P1;HPM_P2
2022/06/12 00:01:16;;;;;;;16.00;10.35;;;;;;;20.21;74.92;99548.69;5050799;28;20029;-62
2022/06/12 00:03:42;;;;;;;17.52;10.45;;;;;;;20.19;74.60;99548.81;5052704;28;20052;-62
2022/06/12 00:06:08;;;;;;;15.00;9.65;;;;;;;20.12;73.87;99547.50;5036984;28;20116;-62
2022/06/12 00:08:37;;;;;;;15.98;11.40;;;;;;;19.98;72.24;99533.47;5032252;28;20458;-61
2022/06/12 00:11:06;;;;;;;15.43;10.65;;;;;;;19.83;72.40;99498.44;5032253;28;20030;-62
2022/06/12 00:13:36;;;;;;;14.63;10.90;;;;;;;19.85;72.64;99502.78;5032396;28;20026;-62
2022/06/12 00:16:03;;;;;;;19.88;13.95;;;;;;;20.02;71.57;99547.22;5031932;28;20102;-62
2022/06/12 00:18:29;;;;;;;14.82;12.10;;;;;;;19.83;71.41;99548.38;5032246;28;20082;-60
2022/06/12 00:21:13;;;;;;;15.82;12.30;;;;;;;19.95;71.76;99545.94;5032343;28;20045;-61
2022/06/12 00:23:50;;;;;;;16.88;12.05;;;;;;;19.88;71.59;99542.00;5045526;28;20036;-61
2022/06/12 00:26:21;;;;;;;16.73;11.63;;;;;;;19.66;71.56;99494.22;5052014;28;20033;-61
2022/06/12 00:28:47;;;;;;;15.65;12.25;;;;;;;19.94;71.13;99545.09;5056170;28;20035;-61
2022/06/12 00:31:13;;;;;;;16.52;11.57;;;;;;;19.93;71.22;99543.41;5072010;28;20032;-61
2022/06/12 00:33:39;;;;;;;12.18;10.75;;;;;;;20.00;71.38;99546.50;5033412;28;20029;-61
2022/06/12 00:36:05;;;;;;;13.02;11.02;;;;;;;19.95;71.26;99543.31;5031577;28;20091;-61
2022/06/12 00:38:31;;;;;;;14.90;11.15;;;;;;;19.92;70.91;99554.03;5031335;28;20372;-61
2022/06/12 00:40:57;;;;;;;17.17;12.00;;;;;;;19.89;70.84;99551.59;5031919;28;20037;-61
2022/06/12 00:43:27;;;;;;;18.98;12.20;;;;;;;19.54;71.26;99539.66;5030816;28;20037;-61
2022/06/12 00:45:59;;;;;;;15.25;12.50;;;;;;;19.70;70.87;99547.44;5064202;28;20107;-61
2022/06/12 00:48:31;;;;;;;16.70;13.20;;;;;;;19.35;71.60;99492.63;5069343;28;20043;-62
2022/06/12 00:51:17;;;;;;;19.30;14.32;;;;;;;19.59;71.86;99540.19;5058233;28;20078;-61
2022/06/12 00:53:50;;;;;;;14.80;13.25;;;;;;;19.28;71.47;99505.31;5052338;28;20017;-62
2022/06/12 00:56:19;;;;;;;19.10;16.00;;;;;;;19.28;72.03;99521.06;5044088;28;20057;-62
2022/06/12 00:58:53;;;;;;;20.85;15.82;;;;;;;19.34;72.83;99550.50;5039034;28;20103;-62
2022/06/12 01:01:33;;;;;;;18.20;14.80;;;;;;;19.29;72.92;99535.88;5071804;28;20036;-62
2022/06/12 01:06:46;;;;;;;19.50;15.32;;;;;;;19.49;72.55;99539.91;5031803;28;20036;-62
2022/06/12 01:09:19;;;;;;;22.25;15.00;;;;;;;19.58;72.14;99558.69;5031737;28;20025;-62
2022/06/12 01:11:47;;;;;;;18.35;15.18;;;;;;;19.26;73.26;99532.59;5043708;28;20039;-62
2022/06/12 01:14:17;;;;;;;20.42;15.25;;;;;;;19.36;72.46;99538.97;5048340;28;20513;-62
2022/06/12 01:16:48;;;;;;;19.75;14.30;;;;;;;19.53;72.53;99561.59;5035515;28;20483;-62
2022/06/12 01:19:42;;;;;;;16.40;13.45;;;;;;;19.58;72.40;99556.94;5035953;28;20030;-62
2022/06/12 01:22:23;;;;;;;19.08;14.90;;;;;;;19.40;72.81;99561.50;5035258;28;20077;-62
2022/06/12 01:25:19;;;;;;;17.90;14.38;;;;;;;19.50;72.46;99567.06;5055577;28;20115;-62
2022/06/12 01:28:06;;;;;;;14.23;12.75;;;;;;;19.47;72.45;99562.81;5055063;28;20448;-62
2022/06/12 01:31:04;;;;;;;16.33;13.68;;;;;;;19.42;72.82;99558.78;5037544;28;20029;-62
2022/06/12 01:34:03;;;;;;;19.58;13.57;;;;;;;19.24;73.26;99561.59;5050300;28;20436;-62
2022/06/12 01:36:39;;;;;;;17.45;13.60;;;;;;;19.04;73.83;99561.91;5034956;28;20054;-61
2022/06/12 01:39:20;;;;;;;15.52;12.35;;;;;;;18.67;74.01;99511.53;5062333;28;20119;-61
2022/06/12 01:42:00;;;;;;;15.37;13.17;;;;;;;19.03;74.40;99568.09;5074978;28;20028;-61
2022/06/12 01:44:31;;;;;;;18.23;13.20;;;;;;;18.92;74.48;99560.84;5057708;28;20040;-61
2022/06/12 01:47:03;;;;;;;14.93;13.20;;;;;;;18.87;73.95;99549.75;5034751;28;20113;-62
2022/06/12 01:49:33;;;;;;;;;;;;;;;19.13;74.10;99558.75;5039541;28;20402;-62
2022/06/12 01:52:38;;;;;;;19.33;13.95;;;;;;;19.11;73.54;99555.34;5054997;28;19920;-62
2022/06/12 01:55:15;;;;;;;16.50;13.13;;;;;;;19.10;73.68;99558.94;5054714;28;20021;-62
2022/06/12 01:57:52;;;;;;;16.02;13.55;;;;;;;18.91;73.32;99527.66;5035560;28;20022;-62
2022/06/12 02:00:21;;;;;;;15.10;12.88;;;;;;;19.11;73.67;99571.97;5034728;28;20045;-61
2022/06/12 02:02:59;;;;;;;16.73;13.63;;;;;;;19.00;72.84;99565.63;5046154;28;20104;-61
2022/06/12 02:05:44;;;;;;;14.95;11.43;;;;;;;19.16;72.99;99569.06;5062728;28;20082;-60
2022/06/12 02:08:25;;;;;;;14.68;12.55;;;;;;;18.55;73.81;99518.34;5061369;28;20505;-61
2022/06/12 02:13:55;;;;;;;;;;;;;;;19.01;73.03;99568.19;5043313;28;20036;-61
2022/06/12 02:16:35;;;;;;;17.08;12.30;;;;;;;18.61;72.05;99520.59;5074492;28;19951;-59
2022/06/12 02:19:16;;;;;;;15.63;11.93;;;;;;;18.79;73.03;99576.41;5034900;28;20364;-61
2022/06/12 02:22:05;;;;;;;14.27;11.75;;;;;;;18.65;72.51;99523.91;5034504;28;20074;-61
2022/06/12 02:24:48;;;;;;;13.35;11.98;;;;;;;19.11;71.78;99586.84;5053654;28;20552;-61
2022/06/12 02:27:24;;;;;;;11.55;10.43;;;;;;;19.14;71.78;99556.03;5054048;28;20079;-61
2022/06/12 02:30:00;;;;;;;13.00;10.80;;;;;;;19.26;70.77;99574.63;5054280;28;20028;-62
2022/06/12 02:32:33;;;;;;;12.40;9.98;;;;;;;19.06;70.87;99526.75;5054214;28;20406;-61
2022/06/12 02:35:06;;;;;;;15.60;11.63;;;;;;;19.06;71.16;99523.28;5049543;28;20060;-62
2022/06/12 02:37:56;;;;;;;15.32;11.40;;;;;;;19.07;71.35;99520.56;5033837;28;20033;-61
2022/06/12 02:40:40;;;;;;;13.80;11.07;;;;;;;19.52;70.84;99585.34;5034321;28;20028;-62
2022/06/12 02:43:10;;;;;;;13.52;10.88;;;;;;;19.49;69.91;99526.78;5033964;28;20036;-61
2022/06/12 02:45:59;;;;;;;12.07;10.27;;;;;;;19.80;70.14;99564.34;5036251;28;20071;-62
2022/06/12 02:48:25;;;;;;;15.02;10.32;;;;;;;19.89;70.28;99572.63;5054061;28;20032;-62
2022/06/12 02:51:16;;;;;;;12.43;10.40;;;;;;;19.91;69.45;99571.59;5041869;28;20107;-62
2022/06/12 02:54:10;;;;;;;10.68;9.02;;;;;;;19.96;69.68;99572.13;5036612;28;20057;-61
2022/06/12 02:57:11;;;;;;;12.90;9.45;;;;;;;20.01;68.82;99577.13;5033576;28;20383;-61
2022/06/12 02:59:48;;;;;;;9.40;7.85;;;;;;;19.75;67.96;99561.16;5033660;28;20057;-60
2022/06/12 03:02:24;;;;;;;10.15;7.68;;;;;;;20.07;67.82;99568.84;5038911;28;20029;-61
2022/06/12 03:05:19;;;;;;;11.20;8.65;;;;;;;20.16;67.66;99581.38;5050554;28;20030;-61
2022/06/12 03:07:45;;;;;;;8.70;7.80;;;;;;;20.32;67.66;99569.91;5033470;28;20026;-61
2022/06/12 03:10:15;;;;;;;10.13;8.25;;;;;;;19.89;67.40;99530.56;5032998;28;20037;-60
2022/06/12 03:12:41;;;;;;;10.13;7.78;;;;;;;20.28;67.01;99578.94;5033446;28;20061;-60
2022/06/12 03:15:26;;;;;;;12.00;7.53;;;;;;;20.07;67.12;99537.28;5058927;28;20104;-61
2022/06/12 03:17:52;;;;;;;9.73;7.35;;;;;;;20.21;66.30;99588.16;5056013;28;20029;-61
2022/06/12 03:20:18;;;;;;;12.05;7.72;;;;;;;20.26;66.46;99586.91;5058870;28;20052;-61
2022/06/12 03:23:00;;;;;;;10.95;6.43;;;;;;;20.49;65.60;99580.22;5038262;28;20490;-61
2022/06/12 03:25:37;;;;;;;9.27;7.22;;;;;;;20.23;65.68;99534.50;5053593;28;20025;-61
2022/06/12 03:28:19;;;;;;;9.85;7.20;;;;;;;20.48;64.61;99577.69;5052858;28;20486;-61
2022/06/12 03:30:57;;;;;;;8.15;6.45;;;;;;;20.16;65.42;99539.31;5052973;28;20036;-60
2022/06/12 03:33:34;;;;;;;14.05;6.97;;;;;;;20.69;65.43;99586.84;5052912;28;20025;-61
2022/06/12 03:36:24;;;;;;;10.10;6.45;;;;;;;20.74;66.24;99596.22;5064541;28;20052;-62
2022/06/12 03:38:59;;;;;;;7.10;6.40;;;;;;;20.46;65.33;99582.19;5068425;28;20135;-61
2022/06/12 03:41:35;;;;;;;6.82;6.22;;;;;;;20.39;65.03;99551.94;5065019;28;20025;-61
2022/06/12 03:44:19;;;;;;;8.43;6.15;;;;;;;20.80;65.55;99590.56;5032833;28;20033;-61
2022/06/12 03:47:08;;;;;;;12.82;6.22;;;;;;;20.59;65.41;99590.13;5042884;28;20056;-61
2022/06/12 03:49:45;;;;;;;6.90;5.88;;;;;;;20.76;64.79;99589.91;5021471;28;20045;-62
2022/06/12 03:52:23;;;;;;;6.30;5.70;;;;;;;20.68;64.90;99602.72;5032745;28;20030;-61
2022/06/12 03:55:01;;;;;;;6.82;6.13;;;;;;;20.45;64.57;99594.50;5045741;28;20033;-58
2022/06/12 03:57:53;;;;;;;7.55;6.38;;;;;;;20.32;65.12;99549.72;5036264;28;20029;-60
2022/06/12 04:00:31;;;;;;;6.00;5.32;;;;;;;20.88;64.57;99593.53;5046394;28;20033;-60
2022/06/12 04:03:03;;;;;;;6.72;5.88;;;;;;;20.89;64.43;99599.63;5039307;28;20045;-60
2022/06/12 04:05:35;;;;;;;6.07;5.50;;;;;;;20.96;64.62;99604.38;5032698;28;20033;-61
2022/06/12 04:08:03;;;;;;;6.97;6.25;;;;;;;20.94;64.53;99597.56;5045507;28;20106;-60
2022/06/12 04:10:33;;;;;;;7.55;5.88;;;;;;;20.64;64.33;99569.63;5052687;28;20044;-60
2022/06/12 04:13:00;;;;;;;7.13;5.43;;;;;;;21.05;64.85;99602.94;5051931;28;20029;-61
2022/06/12 04:15:35;;;;;;;12.70;6.07;;;;;;;21.11;64.13;99599.06;5051772;28;20032;-61
2022/06/12 04:18:02;;;;;;;6.13;5.53;;;;;;;20.96;63.32;99606.19;5064809;28;20081;-60
2022/06/12 04:20:50;;;;;;;6.32;5.72;;;;;;;20.63;63.46;99566.13;5072023;28;20024;-60
2022/06/12 04:23:53;;;;;;;6.57;5.72;;;;;;;20.91;64.24;99601.22;5062588;28;20482;-62
2022/06/12 04:26:31;;;;;;;5.70;5.10;;;;;;;20.80;63.79;99558.97;5051541;28;20036;-62
2022/06/12 04:29:00;;;;;;;7.43;5.70;;;;;;;20.87;63.90;99562.88;5055596;28;20028;-61
2022/06/12 04:31:28;;;;;;;6.53;5.85;;;;;;;21.14;63.23;99609.38;5072139;28;20021;-61
2022/06/12 04:34:13;;;;;;;7.70;6.03;;;;;;;20.92;63.00;99615.22;5033184;28;20083;-60
2022/06/12 04:36:40;;;;;;;9.23;6.28;;;;;;;20.68;63.29;99605.38;5031492;28;20395;-60
2022/06/12 04:39:07;;;;;;;7.70;6.28;;;;;;;20.78;63.73;99595.91;5053382;28;20033;-61
2022/06/12 04:41:37;;;;;;;7.50;5.95;;;;;;;20.76;63.24;99563.56;5055336;28;20026;-60
2022/06/12 04:44:05;;;;;;;8.07;5.80;;;;;;;20.77;62.96;99562.63;5032061;28;20079;-61
2022/06/12 04:46:33;;;;;;;7.45;6.45;;;;;;;21.27;62.69;99594.44;5031657;28;20025;-61
2022/06/12 04:48:59;;;;;;;8.05;5.88;;;;;;;21.41;62.98;99611.94;5032045;28;20021;-61
2022/06/12 04:51:25;;;;;;;9.48;6.10;;;;;;;21.60;62.56;99606.28;5032052;28;20459;-61
2022/06/12 04:53:52;;;;;;;8.63;6.20;;;;;;;21.55;63.23;99601.34;5036889;28;20025;-61
2022/06/12 04:56:20;;;;;;;9.25;6.35;;;;;;;21.69;62.17;99604.81;5045370;28;20021;-61
2022/06/12 04:58:46;;;;;;;10.15;6.10;;;;;;;21.79;62.22;99602.38;5035528;28;20034;-61
2022/06/12 05:01:12;;;;;;;6.50;5.90;;;;;;;21.99;62.48;99598.34;5071598;28;20036;-61
2022/06/12 05:03:37;;;;;;;6.68;6.00;;;;;;;22.00;61.37;99606.16;5054526;28;20110;-61
2022/06/12 05:06:03;;;;;;;6.93;5.88;;;;;;;21.42;61.99;99608.38;5039137;28;20025;-60
2022/06/12 05:08:29;;;;;;;7.63;6.05;;;;;;;21.81;61.85;99609.25;5031383;28;20422;-61
2022/06/12 05:10:55;;;;;;;6.25;5.55;;;;;;;21.82;62.34;99610.94;5031851;28;20030;-61
2022/06/12 05:13:21;;;;;;;8.20;5.78;;;;;;;21.70;61.69;99609.97;5031715;28;20390;-61
2022/06/12 05:15:47;;;;;;;10.60;6.32;;;;;;;21.72;61.73;99623.06;5068057;28;20378;-61
2022/06/12 05:18:15;;;;;;;10.00;5.57;;;;;;;21.85;61.40;99620.44;5044123;28;20036;-63
2022/06/12 05:20:42;;;;;;;8.93;5.47;;;;;;;21.77;60.79;99620.13;5031487;28;20034;-62
2022/06/12 05:23:08;;;;;;;6.45;5.53;;;;;;;21.86;61.40;99616.81;5039855;28;20238;-62
2022/06/12 05:25:35;;;;;;;6.35;5.75;;;;;;;21.90;61.20;99610.38;5051562;28;20032;-63
2022/06/12 05:28:01;;;;;;;6.53;5.30;;;;;;;21.90;61.36;99615.66;5051485;28;20025;-64
2022/06/12 05:30:29;;;;;;;8.32;5.63;;;;;;;21.63;61.01;99568.34;5051382;28;20029;-63
2022/06/12 05:32:56;;;;;;;9.18;5.63;;;;;;;21.92;59.85;99624.31;5051317;28;20040;-64
2022/06/12 05:35:23;;;;;;;6.07;4.90;;;;;;;22.14;60.85;99606.97;5051111;28;20486;-64
2022/06/12 05:37:50;;;;;;;6.55;5.07;;;;;;;21.86;61.03;99564.09;5049798;28;20104;-64
2022/06/12 05:40:20;;;;;;;8.25;5.68;;;;;;;21.84;60.02;99614.28;5050258;28;20102;-63
2022/06/12 05:42:47;;;;;;;6.82;4.85;;;;;;;21.95;60.60;99621.47;5051404;28;20021;-63
2022/06/12 05:45:15;;;;;;;6.90;5.68;;;;;;;21.77;59.67;99605.13;5047636;28;20095;-63
2022/06/12 05:47:46;;;;;;;5.95;5.35;;;;;;;21.86;59.86;99617.69;5046820;28;20021;-62
2022/06/12 05:50:11;;;;;;;6.10;5.50;;;;;;;21.87;60.12;99613.25;5051405;28;20051;-62
2022/06/12 05:52:37;;;;;;;6.13;5.53;;;;;;;21.96;59.53;99611.75;5051388;28;20054;-62
2022/06/12 05:55:03;;;;;;;8.63;5.47;;;;;;;22.32;59.54;99612.72;5050990;28;20029;-63
2022/06/12 05:57:29;;;;;;;5.68;5.13;;;;;;;22.21;58.36;99603.78;5035400;28;20037;-63
2022/06/12 05:59:54;;;;;;;6.28;4.97;;;;;;;22.46;59.71;99615.28;5033294;28;20056;-62
2022/06/12 06:02:20;;;;;;;9.02;5.47;;;;;;;22.61;59.30;99601.91;5040570;28;20025;-62
2022/06/12 06:04:45;;;;;;;6.63;5.10;;;;;;;22.81;59.10;99603.91;5055888;28;20017;-63
2022/06/12 06:07:11;;;;;;;6.88;5.55;;;;;;;22.86;58.98;99606.19;5074747;28;20405;-63
2022/06/12 06:09:37;;;;;;;8.23;5.63;;;;;;;22.91;57.82;99612.84;5041666;28;20021;-61
2022/06/12 06:12:03;;;;;;;6.60;5.30;;;;;;;22.69;57.50;99605.66;5058389;28;20020;-63
2022/06/12 06:14:28;;;;;;;5.63;5.00;;;;;;;22.91;57.82;99601.44;5060015;28;20087;-63
2022/06/12 06:16:54;;;;;;;5.70;5.03;;;;;;;22.90;57.76;99603.25;5034330;28;20026;-63
2022/06/12 06:19:19;;;;;;;6.38;4.68;;;;;;;22.64;56.05;99597.22;5034509;28;20748;-63
2022/06/12 06:21:45;;;;;;;7.07;4.78;;;;;;;;;;5063948;28;20068;-63
2022/06/12 06:24:11;;;;;;;5.47;4.93;;;;;;;22.98;57.90;99596.56;5051329;28;20025;-62
2022/06/12 06:26:38;;;;;;;6.07;5.10;;;;;;;22.82;56.59;99600.31;5053983;28;20040;-63
2022/06/12 06:29:04;;;;;;;7.13;5.38;;;;;;;22.87;56.16;99589.41;5054180;28;20048;-63
2022/06/12 06:31:30;;;;;;;8.85;5.40;;;;;;;22.69;57.40;99594.28;5053930;28;20033;-63
2022/06/12 06:33:56;;;;;;;7.47;5.03;;;;;;;22.78;57.18;99588.31;5054138;28;20125;-62
2022/06/12 06:36:21;;;;;;;7.95;4.97;;;;;;;22.54;57.14;99591.78;5053489;28;20048;-62
2022/06/12 06:38:51;;;;;;;6.18;5.30;;;;;;;22.61;57.47;99586.91;5044254;28;20125;-63
2022/06/12 06:41:16;;;;;;;9.52;5.32;;;;;;;22.45;57.98;99589.81;5034189;28;20112;-63
2022/06/12 06:46:26;;;;;;;6.30;4.80;;;;;;;22.60;57.41;99569.38;5033781;28;20033;-62
2022/06/12 06:48:52;;;;;;;6.75;5.03;;;;;;;22.81;56.50;99576.66;5033864;28;20052;-62
2022/06/12 06:51:19;;;;;;;5.78;4.53;;;;;;;22.80;55.21;99575.81;5033738;28;20065;-63
2022/06/12 06:53:45;;;;;;;5.20;4.38;;;;;;;22.61;54.24;99573.69;5047680;28;20489;-61
2022/06/12 06:56:11;;;;;;;10.27;4.45;;;;;;;22.56;54.59;99579.31;5057939;28;20025;-62
2022/06/12 06:58:36;;;;;;;9.50;4.72;;;;;;;22.46;54.85;99574.81;5073401;28;20024;-62
2022/06/12 07:01:03;;;;;;;5.07;4.60;;;;;;;22.54;55.40;99562.75;5034230;28;20025;-62
2022/06/12 07:03:30;;;;;;;4.82;4.32;;;;;;;22.55;54.32;99569.72;5048890;28;20029;-62
2022/06/12 07:05:56;;;;;;;8.73;3.90;;;;;;;22.63;54.02;99573.59;5043101;28;20032;-62
2022/06/12 07:08:25;;;;;;;6.03;4.75;;;;;;;22.30;55.61;99572.44;5043843;28;20025;-62
2022/06/12 07:10:51;;;;;;;4.47;4.00;;;;;;;22.66;54.85;99568.94;5073054;28;20025;-62
2022/06/12 07:13:17;;;;;;;18.15;6.15;;;;;;;22.34;55.87;99580.03;5073689;28;20099;-63
2022/06/12 07:15:43;;;;;;;6.75;4.85;;;;;;;22.37;56.57;99574.53;5039457;28;20683;-63
2022/06/12 07:18:11;;;;;;;7.22;4.50;;;;;;;22.63;56.39;99573.59;5033205;28;20364;-63
2022/06/12 07:20:41;;;;;;;6.43;4.32;;;;;;;22.52;56.21;99529.53;5048694;28;20078;-63
2022/06/12 07:23:08;;;;;;;8.07;4.90;;;;;;;22.91;55.60;99567.94;5064990;28;20149;-63
2022/06/12 07:25:41;;;;;;;8.40;4.78;;;;;;;23.09;56.21;99563.06;5053252;28;20037;-63
2022/06/12 07:28:07;;;;;;;5.15;4.25;;;;;;;23.36;55.61;99567.25;5052770;28;20490;-63
2022/06/12 07:30:33;;;;;;;5.75;4.15;;;;;;;23.37;54.30;99562.78;5052902;28;20033;-64
2022/06/12 07:32:59;;;;;;;6.00;3.85;;;;;;;23.60;54.46;99559.22;5052560;28;20039;-63
2022/06/12 07:35:24;;;;;;;5.28;3.58;;;;;;;23.05;51.59;99558.16;5058640;28;20052;-62
2022/06/12 07:37:50;;;;;;;5.53;4.30;;;;;;;23.32;52.42;99554.41;5056729;28;20367;-63
2022/06/12 07:40:22;;;;;;;5.00;4.18;;;;;;;23.12;52.54;99518.94;5051779;28;20027;-64
2022/06/12 07:42:48;;;;;;;6.30;4.28;;;;;;;23.37;52.34;99560.16;5050218;28;20029;-63
2022/06/12 07:45:14;;;;;;;4.38;3.95;;;;;;;23.29;51.30;99533.47;5050166;28;20032;-62
2022/06/12 07:47:40;;;;;;;4.40;4.00;;;;;;;23.62;51.60;99556.47;5052606;28;20482;-64
2022/06/12 07:50:06;;;;;;;4.68;4.20;;;;;;;23.93;51.86;99549.63;5056033;28;20108;-63
2022/06/12 07:52:32;;;;;;;4.30;3.90;;;;;;;24.11;52.44;99557.91;5072792;28;20024;-62
2022/06/12 07:54:58;;;;;;;5.65;3.70;;;;;;;24.34;51.04;99552.53;5049598;28;20398;-63
2022/06/12 07:57:24;;;;;;;3.72;3.42;;;;;;;24.48;50.81;99551.41;5066450;28;20070;-63
2022/06/12 07:59:49;;;;;;;6.97;3.40;;;;;;;24.50;49.64;99548.63;5061860;28;20429;-63
2022/06/12 08:02:15;;;;;;;8.35;3.30;;;;;;;24.62;50.12;99551.16;5052750;28;20500;-63
2022/06/12 08:04:40;;;;;;;4.75;3.95;;;;;;;24.45;50.46;99541.91;5052703;28;20518;-63
2022/06/12 08:07:07;;;;;;;3.70;3.40;;;;;;;24.63;50.67;99550.19;5052451;28;20032;-63
2022/06/12 08:09:32;;;;;;;3.60;3.30;;;;;;;23.93;47.75;99549.63;5037355;28;20092;-64
2022/06/12 08:11:58;;;;;;;6.18;3.90;;;;;;;24.18;48.94;99552.94;5052925;28;20056;-63
2022/06/12 08:14:24;;;;;;;8.00;3.58;;;;;;;24.27;48.13;99538.97;5061472;28;20056;-63
2022/06/12 08:16:50;;;;;;;4.47;3.45;;;;;;;24.08;47.97;99541.41;5032179;28;20467;-63
2022/06/12 08:22:03;;;;;;;18.98;4.72;;;;;;;23.69;47.79;99501.28;5069507;28;20493;-64
2022/06/12 08:24:29;;;;;;;7.20;3.70;;;;;;;24.37;48.45;99530.25;5052360;28;20039;-64
2022/06/12 08:26:54;;;;;;;5.32;3.42;;;;;;;24.62;48.89;99531.78;5049418;28;20158;-64
2022/06/12 08:29:20;;;;;;;7.82;3.92;;;;;;;24.66;48.41;99513.84;5050676;28;20021;-63
2022/06/12 08:31:49;;;;;;;11.68;4.07;;;;;;;24.69;47.80;99545.34;5051526;28;20021;-62
2022/06/12 08:34:23;;;;;;;8.85;4.05;;;;;;;24.72;48.13;99521.25;5051690;28;20033;-63
2022/06/12 08:36:54;;;;;;;3.45;3.15;;;;;;;24.39;46.70;99533.66;5033707;28;20072;-63
2022/06/12 08:39:21;;;;;;;8.32;3.40;;;;;;;24.34;47.37;99530.53;5058108;28;20036;-64
2022/06/12 08:41:59;;;;;;;4.45;3.63;;;;;;;24.01;47.36;99545.53;5054816;28;20487;-64
2022/06/12 08:44:47;;;;;;;6.57;3.60;;;;;;;23.79;46.18;99484.56;5032120;28;20079;-63
2022/06/12 08:47:43;;;;;;;3.85;2.80;;;;;;;24.57;46.29;99518.03;5031836;28;20037;-64
2022/06/12 08:50:12;;;;;;;5.15;2.88;;;;;;;24.57;45.83;99480.97;5035101;28;20548;-64
2022/06/12 08:52:44;;;;;;;3.35;2.80;;;;;;;24.58;44.98;99528.50;5052080;28;20037;-62
2022/06/12 08:55:22;;;;;;;3.83;2.80;;;;;;;24.27;44.18;99523.09;5051562;28;20490;-64
2022/06/12 08:57:58;;;;;;;16.10;4.43;;;;;;;24.02;44.70;99529.50;5034969;28;20132;-63
2022/06/12 09:00:28;;;;;;;7.80;3.60;;;;;;;23.90;45.52;99470.50;5045326;28;20482;-63
2022/06/12 09:02:55;;;;;;;6.22;3.35;;;;;;;24.45;45.16;99525.19;5051959;28;20033;-63
2022/06/12 09:05:27;;;;;;;4.03;3.17;;;;;;;24.18;44.43;99510.59;5051797;28;20398;-64
2022/06/12 09:07:56;;;;;;;;;;;;;;;24.20;44.18;99511.31;5052320;28;20040;-62
2022/06/12 09:10:37;;;;;;;17.17;4.72;;;;;;;24.58;44.93;99519.72;5051010;28;19909;-63
2022/06/12 09:13:25;;;;;;;8.80;3.40;;;;;;;24.68;44.43;99510.06;5052851;28;20046;-63
2022/06/12 09:16:23;;;;;;;4.70;3.00;;;;;;;24.52;43.93;99520.25;5046527;28;20017;-63
2022/06/12 09:19:07;;;;;;;4.72;3.30;;;;;;;24.23;43.56;99467.91;5047080;28;20370;-64
2022/06/12 09:22:04;;;;;;;8.38;5.20;;;;;;;24.77;43.79;99509.31;5050626;28;20033;-63
2022/06/12 09:25:07;;;;;;;17.35;4.85;;;;;;;25.05;44.35;99514.09;5032118;28;20104;-63
2022/06/12 09:27:42;;;;;;;9.10;3.42;;;;;;;25.10;43.38;99518.03;5042376;28;20028;-63
2022/06/12 09:30:30;;;;;;;4.20;2.95;;;;;;;25.21;43.39;99513.63;5071455;28;20037;-62
2022/06/12 09:33:03;;;;;;;7.75;3.65;;;;;;;24.92;42.43;99509.00;5052790;28;20018;-64
2022/06/12 09:35:44;;;;;;;6.53;3.13;;;;;;;24.76;41.07;99515.56;5034642;28;20398;-62
2022/06/12 09:38:35;;;;;;;3.55;3.10;;;;;;;24.87;43.64;99500.56;5034893;28;20037;-63
2022/06/12 09:41:20;;;;;;;3.20;2.90;;;;;;;25.15;41.99;99507.03;5034085;28;20457;-64
2022/06/12 09:44:07;;;;;;;5.82;3.10;;;;;;;25.19;42.13;99500.50;5035810;28;20029;-63
2022/06/12 09:46:53;;;;;;;3.35;3.05;;;;;;;25.08;41.83;99474.06;5035047;28;20037;-63
2022/06/12 09:50:01;;;;;;;6.25;3.20;;;;;;;25.38;44.00;99483.03;5035125;28;20505;-62
2022/06/12 09:52:33;;;;;;;11.02;3.17;;;;;;;24.87;42.86;99488.19;5040716;28;20087;-64
2022/06/12 09:55:01;;;;;;;5.30;3.03;;;;;;;25.15;42.85;99483.16;5056525;28;20454;-63
2022/06/12 09:57:34;;;;;;;5.85;3.20;;;;;;;25.37;42.92;99487.50;5041037;28;20025;-64
2022/06/12 10:00:03;;;;;;;4.47;3.30;;;;;;;25.45;43.40;99481.53;5032818;28;20057;-62
2022/06/12 10:02:40;;;;;;;3.58;3.22;;;;;;;25.07;41.29;99443.22;5039292;28;20022;-62
2022/06/12 10:05:27;;;;;;;4.68;2.75;;;;;;;24.74;41.48;99487.53;5052099;28;20033;-63
2022/06/12 10:08:04;;;;;;;4.18;3.13;;;;;;;25.07;41.69;99480.34;5034208;28;20486;-62
2022/06/12 10:10:42;;;;;;;3.85;3.00;;;;;;;24.63;41.51;99436.31;5034407;28;20025;-63
2022/06/12 10:13:11;;;;;;;3.97;3.00;;;;;;;24.73;41.74;99469.97;5033182;28;20052;-63
2022/06/12 10:15:48;;;;;;;4.40;3.00;;;;;;;24.63;41.82;99478.69;5040443;28;20400;-63
2022/06/12 10:18:32;;;;;;;3.72;3.20;;;;;;;24.68;42.69;99474.81;5050777;28;20022;-62
2022/06/12 10:21:10;;;;;;;2.90;2.70;;;;;;;24.50;41.63;99429.47;5041950;28;20136;-63
2022/06/12 10:23:36;;;;;;;7.25;3.15;;;;;;;24.71;42.58;99482.50;5052163;28;20078;-62
2022/06/12 10:26:14;;;;;;;7.93;3.10;;;;;;;24.00;42.83;99427.41;5052081;28;20021;-62
2022/06/12 10:28:40;;;;;;;5.22;2.45;;;;;;;24.26;42.72;99465.81;5051995;28;20029;-63
2022/06/12 10:31:18;;;;;;;4.25;2.90;;;;;;;24.31;43.22;99470.72;5070658;28;20029;-62
2022/06/12 10:33:54;;;;;;;3.30;3.00;;;;;;;24.23;42.04;99468.72;5041789;28;20033;-62
2022/06/12 10:36:32;;;;;;;4.82;2.78;;;;;;;24.51;42.18;99460.28;5033967;28;20045;-63
2022/06/12 10:39:23;;;;;;;3.22;2.58;;;;;;;24.42;41.12;99406.31;5031710;28;20049;-63
2022/06/12 10:42:02;;;;;;;5.10;2.93;;;;;;;24.34;40.69;99425.47;5048549;28;20128;-62
2022/06/12 10:44:37;;;;;;;6.28;3.47;;;;;;;24.61;41.24;99451.50;5073670;28;20858;-63
2022/06/12 10:47:16;;;;;;;5.93;3.00;;;;;;;24.76;40.74;99451.16;5054935;28;20462;-64
2022/06/12 10:49:42;;;;;;;5.57;3.08;;;;;;;24.79;42.05;99453.56;5053993;28;20025;-63
2022/06/12 10:52:22;;;;;;;5.20;3.05;;;;;;;24.32;41.13;99406.25;5053807;28;20048;-63
2022/06/12 10:54:51;;;;;;;10.20;3.80;;;;;;;24.18;42.48;99404.72;5053861;28;20482;-63
2022/06/12 10:57:19;;;;;;;3.80;3.05;;;;;;;24.56;41.78;99450.16;5042205;28;20483;-63
2022/06/12 10:59:57;;;;;;;5.75;3.20;;;;;;;24.97;42.24;99453.81;5033710;28;20032;-64
2022/06/12 11:02:39;;;;;;;2.70;2.50;;;;;;;25.06;42.11;99447.69;5037985;28;20095;-64
2022/06/12 11:05:23;;;;;;;2.92;2.58;;;;;;;24.83;40.28;99451.47;5033825;28;20051;-64
2022/06/12 11:08:15;;;;;;;3.85;2.83;;;;;;;24.88;41.78;99438.69;5033870;28;20041;-63
2022/06/12 11:10:59;;;;;;;3.28;2.97;;;;;;;24.73;40.91;99446.13;5033735;28;20018;-63
2022/06/12 11:13:43;;;;;;;5.10;2.95;;;;;;;25.06;40.19;99437.09;5049492;28;20517;-63
2022/06/12 11:16:17;;;;;;;5.47;3.40;;;;;;;25.28;41.47;99433.44;5053291;28;20032;-63
2022/06/12 11:19:07;;;;;;;3.00;2.65;;;;;;;25.31;43.08;99417.28;5053372;28;20533;-64
2022/06/12 11:21:57;;;;;;;5.13;3.00;;;;;;;24.88;39.83;99385.69;5053540;28;20111;-63
2022/06/12 11:24:33;;;;;;;5.97;2.75;;;;;;;24.98;40.06;99390.09;5053343;28;20021;-64
2022/06/12 11:27:26;;;;;;;8.65;3.20;;;;;;;25.44;40.55;99424.16;5053155;28;20056;-63
2022/06/12 11:30:12;;;;;;;2.70;2.50;;;;;;;25.07;40.89;99377.84;5053168;28;20109;-63
2022/06/12 11:33:28;;;;;;;4.22;2.95;;;;;;;25.35;40.09;99424.97;5052857;28;20044;-64
2022/06/12 11:36:21;;;;;;;9.75;3.90;;;;;;;25.46;41.20;99411.63;5061257;28;20135;-64
2022/06/12 11:38:59;;;;;;;5.95;2.70;;;;;;;25.50;41.14;99423.63;5054929;28;20052;-64
2022/06/12 11:41:51;;;;;;;3.75;2.90;;;;;;;25.39;39.70;99411.31;5037003;28;20021;-64
2022/06/12 11:44:36;;;;;;;3.00;2.60;;;;;;;25.10;40.28;99366.97;5055726;28;20025;-64
2022/06/12 11:47:25;;;;;;;4.80;2.38;;;;;;;25.27;40.14;99407.91;5055348;28;20029;-64
2022/06/12 11:50:18;;;;;;;5.07;2.70;;;;;;;25.07;40.77;99408.78;5041276;28;20044;-64
2022/06/12 11:52:52;;;;;;;5.45;2.80;;;;;;;24.72;40.56;99370.28;5052837;28;20075;-64
2022/06/12 11:55:38;;;;;;;5.68;2.95;;;;;;;24.74;40.52;99405.41;5052695;28;20047;-63
2022/06/12 11:58:09;;;;;;;6.53;2.67;;;;;;;24.49;40.77;99410.13;5069376;28;20025;-63
2022/06/12 12:01:03;;;;;;;3.03;2.72;;;;;;;24.68;42.71;99398.00;5072494;28;20039;-64
2022/06/12 12:04:02;;;;;;;13.27;3.83;;;;;;;24.73;40.96;99399.28;5059741;28;20041;-64
2022/06/12 12:06:30;;;;;;;19.15;4.20;;;;;;;24.89;41.51;99393.50;5052620;28;20470;-63
2022/06/12 12:09:07;;;;;;;5.18;3.05;;;;;;;24.86;40.97;99391.13;5051929;28;20056;-63
2022/06/12 12:11:43;;;;;;;6.28;3.03;;;;;;;24.58;39.61;99374.06;5051181;28;20372;-64
2022/06/12 12:14:15;;;;;;;3.55;2.72;;;;;;;24.66;40.20;99336.41;5052310;28;20082;-64